Pagina principale
METAR-TAF:

METAR-TAF

Aeroporti :

Aeroporto di Portorose

Portorose, Slovenia

latitudine: 45-31N, longitudine: 013-34E, altezza: 95 m

Osservazione

Il bollettino è stato emesso 37 minuti fa, alle 16:30 UTC
Vento 5 kt da nord-ovest, variando fra ovest e nord
Temperature 20°C
Umidità 46%
Pressione 1015 hPa
Visibilità 10 km o più
nessuna nube inferiore a 1500 m e nessun cumulonembo

METAR: LJPZ 311630Z 32005KT 280V350 CAVOK 20/08 Q1015

Ora: 19:07 (17:07 UTC)

Previsione

Il bollettino è stato emesso 3 ore e 7 minuti fa, alle 14:00 UTC
Previsione valida dal 31 alle 15 UTC al 31 alle 24 UTC
Vento 5 kt da nord-ovest
Visibilità 10 km o più
Poco nuvoloso ad un'altezza di 5000 ft

TAF: LJPZ 311400Z 3115/3124 31005KT 9999 FEW050

Osservazioni e previsioni meteorologiche di più di 4000 aeroporti (messaggi METAR e TAF).

Le stazioni disponibili sono rappresentate dai dischi gialli e rossi sulla carta.

Puntare il mouse per vedere il nome della stazione.

Clicca sopra per visualizzare le osservazioni e previsioni meteorologiche.

Per cambiare la mappa : fare clic sui pulsanti verdi con una croce nera per ingrandire, il pulsante verde con un trattino per diminuire, o sulla freccia verde per le mappe adiacenti.


METAR-TAF: